Westchester County Airport
KHPN : now visible

Airfield :











YOU CAN JOIN US ON...

 
LOGIN :

Register | Disclaimer

   EN    FR    IT 

 









Legend :    VFR   Marginal VFR   IFR   Intensive IFR   Very Intensive IFR
Visi :
Ceiling :
>= 8 km
>= 3000ft
5 to 8 km
1000 to 3000 ft
1500m to 5 km
500 to 1000 ft
800 to 1500m
200 to 500 ft
< 800m
< 200 ft
Symbols :   Thunderstorms  Fog  Heavy snow  Heavy precipitations  Wind > 20 kt






- Airport Elevation : 439 ft
- IATA code : HPN


KHPN - Westchester County

CURRENT METAR :
  • 021156Z 23003KT 10SM BKN016 BKN110 24/21 A2993 RMK AO2 RAE53 SLP128 P0000 60000 T02440211 10267 20233 53011

EXPIRED METARs :
  • 021056Z 00000KT 10SM -RA BKN110 24/22 A2990 RMK AO2 RAB38 SLP117 P0000 T02390217
  • 020956Z 31004KT 10SM SCT070 BKN100 23/22 A2990 RMK AO2 SLP116 T02330217

TAF KHPN
Valid from the 02 at 12:00 until the 03 at 12:00 UTC


021129Z 0212/0312 24009KT P6SM VCSH SCT035 BKN060
FM021900 23012KT 6SM -SHRA BR SCT035 BKN060
TEMPO 0220/0224 3SM TSRA BKN035CB
FM030000 27006KT P6SM SCT060
PROB30 0300/0305 4SM -SHRA BKN060
FM030500 31004KT P6SM BKN100 AMD NOT SKED
KZBW FIR / North America



MET'MAP, your aeronautical weather chart ! - Copyright ORBIFLY December 2007 - Disclaimer

ORBIFLY MET'MAP TEAM :

Programming & Development : Alexandra Zaïnal
Original concept : Baudouin d'Aumeries
Technical & hardware support : Manuel Goepfert
Assistance : Marc-Olivier Méhu




SOURCES & CREDITS :

   NOAA       Earth
Advisory